Résultats

Trail National des Sapeurs Pompiers - 32KM. Édition 2018.

32 Km
19/05/2018 à 08:00:00 - GEMENOS (13)
131 arrivant(e)s.


# Nom Prenom Temps Sexe Dossard Categ #Sexe #Categ Vit Moy Club Diplôme Photo
1 MORISSE YOANN 03:25:57 M 113 SEM 1 1 9.32 SDIS-091-ESSONNE
2 ERDELI AURELIAN 03:33:45 M 82 SEM 2 2 8.98 SDIS-066-PYRENEES ORIENTALES
3 N:Anonyme 4 P:Anonyme 4 03:35:38 M 4 M1M 3 1 8.90 SDIS-006-ALPES MARITIMES
4 N:Anonyme 91 P:Anonyme 91 03:41:19 M 91 SEM 4 3 8.68 SDIS-073-SAVOIE
5 FERNANDEZ NICOLAS 03:42:50 M 131 SEM 5 4 8.62 SDIS-013-BOUCHES DU RHONE
6 ROTH GAETAN 03:44:01 M 61 M2M 6 1 8.57 SDIS-043-HAUTE LOIRE
7 UVENARD ROMAIN 03:44:27 M 96 SEM 7 5 8.55 SDIS-073-SAVOIE
8 KUSCHNICK PHILIPPE 03:45:50 M 95 M1M 8 2 8.50 SDIS-073-SAVOIE
9 TOULZE ANTHONY 03:49:40 M 101 SEM 9 6 8.36 SDIS-081-TARN
10 BADER CLEMENT 03:54:31 M 118 SEM 10 7 8.19 DUNES D'ESPOIR
11 VAXILLAIRE YANN 03:57:47 M 155 M1M 11 3 8.07
12 DESCHAMPS JULIEN 03:58:15 M 128 M1M 12 4 8.06 TEAM FOULEE AUBAGNE
13 LEHR FREDERIC 03:58:16 M 103 M1M 13 5 8.06 SDIS-083-VAR
14 LAURENT JULIEN 03:58:26 M 59 SEM 14 8 8.05 SDIS-040-LANDES
15 ROTURIER MAX 04:02:45 M 116 M1M 15 6 7.91 SDIS-131-BMP MARSEILLE
16 LE-GALLEZE XAVIER 04:03:09 M 20 M1M 16 7 7.90 SDIS-013-BOUCHES DU RHONE
17 BLARDONE CHARLES 04:03:26 M 27 SEM 17 9 7.89 SDIS-021-COTE D'OR
18 RUBELLIN PIERRE 04:04:51 M 88 SEM 18 10 7.84 SDIS-069-RHONE
19 N:Anonyme 100 P:Anonyme 100 04:05:44 M 100 SEM 19 11 7.81 SDIS-081-TARN
20 VARENNE LUDOVIC 04:09:10 M 97 M1M 20 8 7.71 SDIS-073-SAVOIE
21 BONNEAU DAVY 04:09:26 M 110 SEM 21 12 7.70 SDIS-086-VIENNE
22 MARTIN PHILIPPE 04:12:41 M 104 M1M 22 9 7.60 SDIS-083-VAR
23 CLET CECILE 04:13:40 F 31 M1F 1 1 7.57 SDIS-021-COTE D'OR
24 BIAU STEPHANE 04:14:05 M 72 SEM 23 13 7.56 SDIS-065-HAUTES-PYRENEES
25 RAYNAUD PATRICK-CHRISTOPHE 04:19:01 M 148 M2M 24 2 7.41
26 OLASO NICOLAS 04:19:51 M 35 M1M 25 10 7.39 SDIS-024-DORDOGNE
27 MONGOIN FLORIAN 04:21:46 M 143 SEM 26 14 7.33 DA FOUF WARRIORS
28 PAGEON PIERRE 04:22:19 M 145 SEM 27 15 7.32 TEAM RAIDLIGHT PACA
29 BAFFALIE CHRISTOPHE 04:30:19 M 40 M2M 28 3 7.10 SDIS-030-GARD
30 BERTIN FLORIAN 04:31:46 M 81 SEM 29 16 7.06 SDIS-066-PYRENEES ORIENTALES
31 MACCOTTA LAURENT 04:35:21 M 140 M1M 30 11 6.97
32 CAMPION NICOLAS 04:37:05 M 121 SEM 31 17 6.93 SDIS-062-PAS DE CALAIS
33 LACHAIZE OLIVIER 04:37:50 M 136 M1M 32 12 6.91
34 FERREIRA ROBERTO 04:37:59 M 114 SEM 33 18 6.91 SDIS-092-HAUTS DE SEINE
35 COSTECALDE MATTHIEU 04:39:05 M 10 SEM 34 19 6.88 SDIS-012-AVEYRON
36 VANDEWALLE NICOLAS 04:39:39 M 154 SEM 35 20 6.87
37 SAINT-MAXENT AURELIEN 04:40:31 M 70 SEM 36 21 6.84 SDIS-062-PAS DE CALAIS
38 CROZ DANIEL 04:41:19 M 92 M3M 37 1 6.83 SDIS-073-SAVOIE
39 ESCHALIER THOMAS 04:43:06 M 41 SEM 38 22 6.78 SDIS-030-GARD
40 PERGUET XAVIER 04:43:19 M 26 M1M 39 13 6.78 SDIS-019-CORREZE
41 AMALRIC SEBASTIEN 04:43:50 M 117 M1M 40 14 6.76
42 KHARCHI MYRIAM 04:43:54 F 48 M1F 2 2 6.76 SDIS-039-JURA
43 GENIN MATHIEU 04:45:21 M 87 SEM 41 23 6.73 SDIS-069-RHONE
44 GUIOT JEROME 04:45:28 M 11 SEM 42 24 6.73 SDIS-012-AVEYRON
45 HARSTRICH STEVEN 04:46:01 M 19 SEM 43 25 6.71 SDIS-013-BOUCHES DU RHONE
46 BOYER NICOLAS 04:46:14 M 42 M1M 44 15 6.71 SDIS-031-HAUTE-GARONNE
47 BONNAMY FRANCK 04:47:11 M 62 SEM 45 26 6.69 SDIS-044-LOIRE ATLANTIQUE
48 LEON FREDERIC 04:47:11 M 83 SEM 46 27 6.69 SDIS-066-PYRENEES ORIENTALES
49 FOUCHE ERWANN 04:48:13 M 37 SEM 47 28 6.66 SDIS-027-EURE
50 PAOLI JEAN-JACQUES 04:49:43 M 146 M2M 48 4 6.63 LE PASSE MONTAGNE BEDOIN
51 CANTEAU THOMAS 04:52:18 M 33 SEM 49 29 6.57 SDIS-024-DORDOGNE
52 HUCHET MAUREEN 04:53:57 F 56 SEF 3 1 6.53 SDIS-040-LANDES
53 CURTELIN QUENTIN 04:53:57 M 1 SEM 50 30 6.53 SDIS-001-AIN
54 LABERTRANDIE MATHIEU 04:54:55 M 135 SEM 51 31 6.51 SDIS-013-BOUCHES DU RHONE
55 BOUILLET MAX 04:56:14 M 120 SEM 52 32 6.48
56 BREGAND MATTHIEU 04:57:41 M 29 SEM 53 33 6.45 SDIS-021-COTE D'OR
57 DURANTON ROMAIN 04:57:49 M 77 SEM 54 34 6.45 SDIS-065-HAUTES-PYRENEES
58 FERRER JULES 04:57:58 M 44 SEM 55 35 6.44 SDIS-033-GIRONDE
59 TREVISAN CELIA 04:57:59 F 84 SEF 4 2 6.44 SDIS-066-PYRENEES ORIENTALES
60 MOREAU MARIUS 04:59:42 M 6 SEM 56 36 6.41 SDIS-009-ARIEGE
61 LATASTE LUDOVIC 05:03:43 M 58 M1M 57 16 6.32 SDIS-040-LANDES
62 ESPINASSE JEROME 05:07:37 M 25 M1M 58 17 6.24 SDIS-019-CORREZE
63 COFFINET CEDRIC 05:07:56 M 43 M1M 59 18 6.24 SDIS-031-HAUTE-GARONNE
64 N:Anonyme 38 P:Anonyme 38 05:09:00 M 38 SEM 60 37 6.21 SDIS-027-EURE
65 DOURTHE GREGORY 05:10:58 M 14 SEM 61 38 6.17 SDIS-013-BOUCHES DU RHONE
66 POROT CEDRIC 05:10:58 M 156 M1M 62 19 6.17
67 VANCAYZEELE SANDRA 05:11:06 F 153 SEF 5 3 6.17 LISSES AC
68 DESCAMPS XAVIER 05:11:59 M 98 SEM 63 39 6.15 SDIS-081-TARN
69 SAUNIER LAURENT 05:12:51 M 150 M1M 64 20 6.14 OLYMPIQUE CABRIES CALAS
70 ARNAUD GUILLAUME 05:14:06 M 71 SEM 65 40 6.11 SDIS-065-HAUTES-PYRENEES
71 PILLET JULIEN 05:14:16 M 63 SEM 66 41 6.11 SDIS-045-LOIRET
72 GUILBERT ANTOINE 05:14:23 M 7 M1M 67 21 6.11 SDIS-010-AUBE
73 DEMARLE ISABELLE 05:14:41 F 126 M1F 6 3 6.10 ATHELIC BERRE CLUB
74 PEDENON THIERRY 05:15:28 M 36 M2M 68 5 6.09 SDIS-024-DORDOGNE
75 MONCHAUX FREDERIC 05:16:31 M 2 SEM 69 42 6.07 SDIS-002-AISNE
76 SITJAS OLIVIER 05:18:25 M 106 M1M 70 22 6.03 SDIS-083-VAR
77 SPODYMEK NICOLAS 05:27:03 M 24 SEM 71 43 5.87 SDIS-013-BOUCHES DU RHONE
78 VITIS DYLAN 05:31:27 M 39 SEM 72 44 5.79 SDIS-027-EURE
79 N:Anonyme 147 P:Anonyme 147 05:31:56 M 147 SEM 73 45 5.78 UDSP40
80 PONCE FABIEN 05:34:49 M 79 SEM 74 46 5.73 SDIS-065-HAUTES-PYRENEES
81 N:Anonyme 34 P:Anonyme 34 05:34:49 F 34 M1F 7 4 5.73 SDIS-024-DORDOGNE
82 DROMENQ LAURENT 05:34:50 M 130 M1M 75 23 5.73
83 GIBERTI AURELIEN 05:36:00 M 132 SEM 76 47 5.71 I FILANCI
84 GELLY AGNES 05:38:22 F 16 M1F 8 5 5.67 SDIS-013-BOUCHES DU RHONE
85 CALLIER ROBERT 05:38:22 M 46 M3M 77 2 5.67 SDIS-039-JURA
86 CHANCENOTTE JEAN-MICHEL 05:38:49 M 30 M1M 78 24 5.67 SDIS-021-COTE D'OR
87 GIGORY NOE 05:39:06 M 115 SEM 79 48 5.66 SDIS-131-BMP MARSEILLE
88 BAYCHE OLIVIER 05:40:26 M 5 SEM 80 49 5.64 SDIS-009-ARIEGE
89 N:Anonyme 102 P:Anonyme 102 05:41:41 M 102 M1M 81 25 5.62 SDIS-083-VAR
90 DEBRAY YASMINE 05:42:02 F 76 M1F 9 6 5.61 SDIS-065-HAUTES-PYRENEES
91 GERBAL GILLES 05:43:02 M 17 M1M 82 26 5.60 SDIS-013-BOUCHES DU RHONE
92 BAWA YHAN 05:43:22 M 111 M1M 83 27 5.59 SDIS-091-ESSONNE
93 CIPOLLA THIERRY 05:44:32 M 123 M2M 84 6 5.57
94 HERVAUD CHRISTOPHE 05:44:52 M 8 M1M 85 28 5.57 SDIS-010-AUBE
95 FOIN GUILLAUME 05:46:51 M 54 M1M 86 29 5.54 SDIS-040-LANDES
96 LESAGE GWENAEL 05:47:39 M 67 SEM 87 50 5.52 SDIS-053-MAYENNE
97 DAUDET FRANCK 05:50:01 F 124 M1F 10 7 5.49 SAPEUR POMPIER ALES
98 GRANGER SEBASTIEN 05:50:07 M 108 SEM 88 51 5.48 SDIS-085-VENDEE
99 GOUGEON JULIEN 05:50:31 M 65 SEM 89 52 5.48 SDIS-053-MAYENNE
100 BEAUGRAND ROMAIN 05:54:33 M 49 SEM 90 53 5.42 SDIS-040-LANDES
101 MARCHAND MATTHIEU 05:55:17 M 109 SEM 91 54 5.40 SDIS-085-VENDEE
102 TIVAYRAT GUILLAUME 05:55:23 M 3 SEM 92 55 5.40 SDIS-002-AISNE
103 FOLTETE DIDIER 05:59:26 M 99 M2M 93 7 5.34 SDIS-081-TARN
104 MENAGE CHRISTOPHE 06:00:02 M 141 M1M 94 30 5.33 SDIS-021-COTE D'OR
105 BIAGIOLI JEROME 06:00:26 M 12 M1M 95 31 5.33 SDIS-013-BOUCHES DU RHONE
106 IVALDI MARIE-CHARLOTTE 06:02:45 F 134 SEF 11 4 5.29 TRAIL CLUB DES FOUS
107 FUSTINONI KEVIN 06:10:41 M 55 SEM 96 56 5.18 SDIS-040-LANDES
108 LEDOUX VINCENT 06:10:41 M 60 SEM 97 57 5.18 SDIS-040-LANDES
109 TUNNO MARC 06:12:00 M 151 M2M 98 8 5.16 ROGNAC ATHLETIC CLUB
110 REY TANGUY 06:12:06 M 22 SEM 99 58 5.16 SDIS-013-BOUCHES DU RHONE
111 BREUX ALEXIS 06:12:06 F 64 SEF 12 5 5.16 SDIS-053-MAYENNE
112 CARREAU FREDERIC 06:22:17 M 52 M1M 100 32 5.02 SDIS-040-LANDES
113 HUC JOEL 06:24:23 M 78 SEM 101 59 5.00 SDIS-065-HAUTES-PYRENEES
114 DELAS HELENE 06:38:38 F 93 SEF 13 6 4.82 SDIS-073-SAVOIE
115 SAROWSKI CLEMENT 06:39:42 M 9 M1M 102 33 4.80 SDIS-010-AUBE
116 DE-ALMEIDA MANUEL 06:47:53 M 53 M1M 103 34 4.71 SDIS-040-LANDES
117 MARMIGNON ERWAN 06:47:54 M 68 SEM 104 60 4.71 SDIS-053-MAYENNE
118 SALEUR FRANCK 06:53:37 M 23 M1M 105 35 4.64 SDIS-013-BOUCHES DU RHONE
119 FOURNIER GREGORY 07:08:01 M 15 SEM 106 61 4.49 SDIS-013-BOUCHES DU RHONE
120 DEVAUX JEAN-CHRISTOPHE 07:13:48 M 32 SEM 107 62 4.43 SDIS-021-COTE D'OR
121 BOMBRUN VALENTIN 07:13:48 M 28 SEM 108 63 4.43 SDIS-021-COTE D'OR
122 CHENAIL BAPTISTE 07:13:49 M 74 SEM 109 64 4.43 SDIS-065-HAUTES-PYRENEES
123 SANCHEZ ANTONIO 07:14:14 M 149 M2M 110 9 4.42 POMPIERS DE L'ESPOIR
124 LACAZE DAMIEN 07:14:17 M 57 SEM 111 65 4.42 SDIS-040-LANDES
125 BLESSON SANDRINE 07:14:17 F 51 M1F 14 8 4.42 SDIS-040-LANDES
126 DELLA-CASA MIRIAME 07:22:28 F 125 M2F 15 1 4.34
127 DESGEORGE ERIC 07:24:43 M 129 M2M 112 10 4.32 TTCB/TUNING EVADION
128 DESGEORGE OLIVIER 07:24:45 M 69 M2M 113 11 4.32 SDIS-058-NIEVRE
129 LEPELLERIN AMELINE 07:39:38 F 66 SEF 16 7 4.18 SDIS-053-MAYENNE
130 LE-GALL JOEL 08:05:14 M 138 M2M 114 12 3.96 BRIGADE DES BIRETTES:SAPEURS POMPIERS DU CHER
131 LE-GALL DANIELLE 08:05:14 F 137 M1F 17 9 3.96 BRIGADE DES BIRETTES:SAPEURS POMPIERS DU CHER